Adventure of The Seas — C6SA3 — position and weather

sailwx.info

Track history (hours):
 
Tides and Currents Weather Stations Pressure Air Temp Water Temp Dewpoint Dewpoint Depression Visibility Wind Speed Wind Dir Waves Ship Positions

Adventure of The Seas

Operator: Royal Caribbean Cruises Ltd

Last reported at 2018-Feb-19 10:08 UTC. Time now 2018-Feb-23 22:10 UTC.
Position N 17°21' W 062°56'.

Type: Diving. MMSI: 311263000.

Date/timePositionNaut miles runAvg speedWind from/ knotsBaromVisibWave heightAir tempDewpointWater temp
2018-Feb-19 10:08N 17°21' W 062°56'211.4
2018-Feb-19 09:57N 17°22' W 062°57'7 9.6
2018-Feb-19 09:15N 17°25' W 063°04'310.2
2018-Feb-19 08:58N 17°28' W 063°05'710.9
2018-Feb-19 08:20N 17°34' W 063°07'411.0
2018-Feb-19 07:56N 17°39' W 063°08'511.4
2018-Feb-19 07:29N 17°43' W 063°10'611.3
2018-Feb-19 06:57N 17°46' W 063°16'511.2
2018-Feb-19 06:29N 17°48' W 063°21'611.3
2018-Feb-19 05:55N 17°50' W 063°27'  
2018-Feb-16 22:57N 18°03' W 063°34'917.1
2018-Feb-16 22:27N 18°02' W 063°25'917.3
2018-Feb-16 21:54N 18°01' W 063°15'717.2
2018-Feb-16 21:30N 18°00' W 063°08'5 8.2
2018-Feb-16 20:52N 18°01' W 063°03'0 0.0
2018-Feb-16 19:34N 18°01' W 063°03'0 0.0
2018-Feb-16 19:19N 18°01' W 063°03'0 0.0
2018-Feb-16 18:52N 18°01' W 063°03'0 0.0
2018-Feb-16 18:22N 18°01' W 063°03'0 0.0
2018-Feb-16 17:52N 18°01' W 063°03'0 0.0
2018-Feb-16 17:22N 18°01' W 063°03'0 0.0
2018-Feb-16 16:55N 18°01' W 063°03'0 0.0
2018-Feb-16 16:25N 18°01' W 063°03'0 0.0
2018-Feb-16 15:55N 18°01' W 063°03'0 0.0
2018-Feb-16 15:25N 18°01' W 063°03'0 0.0
2018-Feb-16 14:58N 18°01' W 063°03'0 0.0
2018-Feb-16 14:28N 18°01' W 063°03'0 0.0
2018-Feb-16 13:43N 18°01' W 063°03'0 0.0
2018-Feb-16 13:28N 18°01' W 063°03'0 0.0
2018-Feb-16 12:58N 18°01' W 063°03'0 0.0
2018-Feb-16 12:16N 18°01' W 063°03'0 0.0
2018-Feb-16 11:28N 18°01' W 063°03'0 0.0
2018-Feb-16 10:58N 18°01' W 063°03'0 0.4
2018-Feb-16 10:24N 18°00' W 063°03'3 7.6
2018-Feb-16 09:59N 18°00' W 063°06'611.6
2018-Feb-16 09:30N 18°01' W 063°12'611.6
2018-Feb-16 08:58N 18°02' W 063°19'612.2
2018-Feb-16 08:30N 18°02' W 063°25'611.5
2018-Feb-16 07:57N 18°03' W 063°31'  
2018-Feb-13 01:36N 26°10' W 079°23'316.4
2018-Feb-13 01:24N 26°08' W 079°26'716.5
2018-Feb-13 01:00N 26°04' W 079°32'916.7
2018-Feb-13 00:30N 25°60' W 079°40'817.2
2018-Feb-13 00:00N 25°55' W 079°48'917.2
2018-Feb-12 23:30N 25°51' W 079°56'815.5
2018-Feb-12 23:00N 25°47' W 080°04'5 9.2
2018-Feb-12 22:30N 25°46' W 080°09'2 4.0
2018-Feb-12 22:00N 25°47' W 080°11'0 0.0
2018-Feb-12 21:30N 25°47' W 080°11'0 0.0
2018-Feb-12 21:00N 25°47' W 080°11'0 0.0
2018-Feb-12 20:30N 25°47' W 080°11'0 0.0
2018-Feb-12 20:00N 25°47' W 080°11'0 0.0
2018-Feb-12 19:27N 25°47' W 080°11'0 0.0
2018-Feb-12 19:00N 25°47' W 080°11'0 0.0
2018-Feb-12 18:24N 25°47' W 080°11'0 0.0
2018-Feb-12 18:00N 25°47' W 080°11'0 0.0
2018-Feb-12 17:30N 25°47' W 080°11'0 0.0
2018-Feb-12 17:00N 25°47' W 080°11'0 0.0
2018-Feb-12 16:25N 25°47' W 080°11'0 0.0
2018-Feb-12 16:00N 25°47' W 080°11'0 0.0
2018-Feb-12 15:30N 25°47' W 080°11'0 0.0
2018-Feb-12 15:00N 25°47' W 080°11'0 0.0
2018-Feb-12 14:30N 25°47' W 080°11'0 0.0
2018-Feb-12 14:00N 25°47' W 080°11'0 0.0
2018-Feb-12 13:30N 25°47' W 080°11'0 0.0
2018-Feb-12 13:00N 25°47' W 080°11'0 0.0
2018-Feb-12 12:30N 25°47' W 080°11'0 0.0
2018-Feb-12 12:00N 25°47' W 080°11'0 0.0
2018-Feb-12 11:30N 25°47' W 080°11'0 0.0
2018-Feb-12 11:00N 25°47' W 080°11'0 0.0
2018-Feb-12 10:30N 25°47' W 080°11'0 0.0
2018-Feb-12 10:00N 25°47' W 080°11'0 0.0
2018-Feb-12 09:30N 25°47' W 080°11'0 0.0
2018-Feb-12 09:00N 25°47' W 080°11'0 0.0
2018-Feb-12 08:30N 25°47' W 080°11'0 0.0
2018-Feb-12 08:00N 25°47' W 080°11'0 0.0
2018-Feb-12 07:30N 25°47' W 080°11'0 0.0
2018-Feb-12 07:00N 25°47' W 080°11'0 0.0
2018-Feb-12 06:30N 25°47' W 080°11'0 0.0
2018-Feb-12 06:00N 25°47' W 080°11'0 0.0
2018-Feb-12 05:30N 25°47' W 080°11'0 0.0
2018-Feb-12 05:00N 25°47' W 080°11'0 0.0
2018-Feb-12 04:30N 25°47' W 080°11'0 0.0
2018-Feb-12 04:00N 25°47' W 080°11'0 0.0
2018-Feb-12 03:30N 25°47' W 080°11'0 0.0
2018-Feb-12 03:00N 25°47' W 080°11'0 0.0
2018-Feb-12 02:30N 25°47' W 080°11'0 0.0
2018-Feb-12 02:00N 25°47' W 080°11'0 0.0
2018-Feb-12 01:30N 25°47' W 080°11'0 0.0
2018-Feb-12 01:00N 25°47' W 080°11'0 0.0
2018-Feb-12 00:30N 25°47' W 080°11'0 0.0
2018-Feb-12 00:00N 25°47' W 080°11'0 0.0
2018-Feb-11 23:30N 25°47' W 080°11'0 0.4
2018-Feb-11 22:58N 25°47' W 080°11'0 0.0
2018-Feb-11 22:25N 25°47' W 080°11'0 0.0
2018-Feb-11 21:58N 25°47' W 080°11'0 0.0
2018-Feb-11 21:28N 25°47' W 080°11'0 0.0
2018-Feb-11 20:55N 25°47' W 080°11'0 0.0
2018-Feb-11 20:28N 25°47' W 080°11'0 0.0
2018-Feb-11 19:58N 25°47' W 080°11'0 0.0
2018-Feb-11 19:25N 25°47' W 080°11'0 0.0
2018-Feb-11 18:58N 25°47' W 080°11'0 0.0
2018-Feb-11 18:25N 25°47' W 080°11'0 0.0
2018-Feb-11 17:58N 25°47' W 080°11'0 0.0
2018-Feb-11 17:28N 25°47' W 080°11'0 0.0
2018-Feb-11 16:55N 25°47' W 080°11'0 0.0
2018-Feb-11 16:25N 25°47' W 080°11'0 0.0
2018-Feb-11 15:58N 25°47' W 080°11'0 0.0
2018-Feb-11 15:28N 25°47' W 080°11'0 0.0
2018-Feb-11 14:55N 25°47' W 080°11'0 0.0
2018-Feb-11 14:28N 25°47' W 080°11'0 0.0
2018-Feb-11 13:58N 25°47' W 080°11'0 0.0
2018-Feb-11 13:31N 25°47' W 080°11'0 0.0
2018-Feb-11 13:00N 25°47' W 080°11'2 3.4
2018-Feb-11 12:30N 25°46' W 080°09'510.1
2018-Feb-11 12:00N 25°46' W 080°03'510.4
2018-Feb-11 11:30N 25°48' W 079°58'611.3
2018-Feb-11 11:00N 25°51' W 079°52'611.9
2018-Feb-11 10:30N 25°54' W 079°47'611.1
2018-Feb-11 10:00N 25°56' W 079°41'5 9.7
2018-Feb-11 09:29N 25°59' W 079°37'3 6.6
2018-Feb-11 09:00N 26°02' W 079°35'4 8.6
2018-Feb-11 08:31N 26°03' W 079°31'4 8.0
2018-Feb-11 08:00N 26°06' W 079°27'4 8.0
2018-Feb-11 07:31N 26°09' W 079°24'4 6.7
2018-Feb-11 06:59N 26°12' W 079°24'4 6.6
2018-Feb-11 06:25N 26°16' W 079°25'  
Track history (hours):
 
Tides and Currents Weather Stations Pressure Air Temp Water Temp Dewpoint Dewpoint Depression Visibility Wind Speed Wind Dir Waves Ship Positions

Adventure of The Seas

Operator: Royal Caribbean Cruises Ltd

Last reported at 2018-Feb-19 10:08 UTC. Time now 2018-Feb-23 22:10 UTC.
Position N 17°21' W 062°56'.

Type: Diving. MMSI: 311263000.

Date/timePositionNaut miles runAvg speedWind from/ knotsBaromVisibWave heightAir tempDewpointWater temp
2018-Feb-19 10:08N 17°21' W 062°56'211.4
2018-Feb-19 09:57N 17°22' W 062°57'7 9.6
2018-Feb-19 09:15N 17°25' W 063°04'310.2
2018-Feb-19 08:58N 17°28' W 063°05'710.9
2018-Feb-19 08:20N 17°34' W 063°07'411.0
2018-Feb-19 07:56N 17°39' W 063°08'511.4
2018-Feb-19 07:29N 17°43' W 063°10'611.3
2018-Feb-19 06:57N 17°46' W 063°16'511.2
2018-Feb-19 06:29N 17°48' W 063°21'611.3
2018-Feb-19 05:55N 17°50' W 063°27'  
2018-Feb-16 22:57N 18°03' W 063°34'917.1
2018-Feb-16 22:27N 18°02' W 063°25'917.3
2018-Feb-16 21:54N 18°01' W 063°15'717.2
2018-Feb-16 21:30N 18°00' W 063°08'5 8.2
2018-Feb-16 20:52N 18°01' W 063°03'0 0.0
2018-Feb-16 19:34N 18°01' W 063°03'0 0.0
2018-Feb-16 19:19N 18°01' W 063°03'0 0.0
2018-Feb-16 18:52N 18°01' W 063°03'0 0.0
2018-Feb-16 18:22N 18°01' W 063°03'0 0.0
2018-Feb-16 17:52N 18°01' W 063°03'0 0.0
2018-Feb-16 17:22N 18°01' W 063°03'0 0.0
2018-Feb-16 16:55N 18°01' W 063°03'0 0.0
2018-Feb-16 16:25N 18°01' W 063°03'0 0.0
2018-Feb-16 15:55N 18°01' W 063°03'0 0.0
2018-Feb-16 15:25N 18°01' W 063°03'0 0.0
2018-Feb-16 14:58N 18°01' W 063°03'0 0.0
2018-Feb-16 14:28N 18°01' W 063°03'0 0.0
2018-Feb-16 13:43N 18°01' W 063°03'0 0.0
2018-Feb-16 13:28N 18°01' W 063°03'0 0.0
2018-Feb-16 12:58N 18°01' W 063°03'0 0.0
2018-Feb-16 12:16N 18°01' W 063°03'0 0.0
2018-Feb-16 11:28N 18°01' W 063°03'0 0.0
2018-Feb-16 10:58N 18°01' W 063°03'0 0.4
2018-Feb-16 10:24N 18°00' W 063°03'3 7.6
2018-Feb-16 09:59N 18°00' W 063°06'611.6
2018-Feb-16 09:30N 18°01' W 063°12'611.6
2018-Feb-16 08:58N 18°02' W 063°19'612.2
2018-Feb-16 08:30N 18°02' W 063°25'611.5
2018-Feb-16 07:57N 18°03' W 063°31'  
2018-Feb-13 01:36N 26°10' W 079°23'316.4
2018-Feb-13 01:24N 26°08' W 079°26'716.5
2018-Feb-13 01:00N 26°04' W 079°32'916.7
2018-Feb-13 00:30N 25°60' W 079°40'817.2
2018-Feb-13 00:00N 25°55' W 079°48'917.2
2018-Feb-12 23:30N 25°51' W 079°56'815.5
2018-Feb-12 23:00N 25°47' W 080°04'5 9.2
2018-Feb-12 22:30N 25°46' W 080°09'2 4.0
2018-Feb-12 22:00N 25°47' W 080°11'0 0.0
2018-Feb-12 21:30N 25°47' W 080°11'0 0.0
2018-Feb-12 21:00N 25°47' W 080°11'0 0.0
2018-Feb-12 20:30N 25°47' W 080°11'0 0.0
2018-Feb-12 20:00N 25°47' W 080°11'0 0.0
2018-Feb-12 19:27N 25°47' W 080°11'0 0.0
2018-Feb-12 19:00N 25°47' W 080°11'0 0.0
2018-Feb-12 18:24N 25°47' W 080°11'0 0.0
2018-Feb-12 18:00N 25°47' W 080°11'0 0.0
2018-Feb-12 17:30N 25°47' W 080°11'0 0.0
2018-Feb-12 17:00N 25°47' W 080°11'0 0.0
2018-Feb-12 16:25N 25°47' W 080°11'0 0.0
2018-Feb-12 16:00N 25°47' W 080°11'0 0.0
2018-Feb-12 15:30N 25°47' W 080°11'0 0.0
2018-Feb-12 15:00N 25°47' W 080°11'0 0.0
2018-Feb-12 14:30N 25°47' W 080°11'0 0.0
2018-Feb-12 14:00N 25°47' W 080°11'0 0.0
2018-Feb-12 13:30N 25°47' W 080°11'0 0.0
2018-Feb-12 13:00N 25°47' W 080°11'0 0.0
2018-Feb-12 12:30N 25°47' W 080°11'0 0.0
2018-Feb-12 12:00N 25°47' W 080°11'0 0.0
2018-Feb-12 11:30N 25°47' W 080°11'0 0.0
2018-Feb-12 11:00N 25°47' W 080°11'0 0.0
2018-Feb-12 10:30N 25°47' W 080°11'0 0.0
2018-Feb-12 10:00N 25°47' W 080°11'0 0.0
2018-Feb-12 09:30N 25°47' W 080°11'0 0.0
2018-Feb-12 09:00N 25°47' W 080°11'0 0.0
2018-Feb-12 08:30N 25°47' W 080°11'0 0.0
2018-Feb-12 08:00N 25°47' W 080°11'0 0.0
2018-Feb-12 07:30N 25°47' W 080°11'0 0.0
2018-Feb-12 07:00N 25°47' W 080°11'0 0.0
2018-Feb-12 06:30N 25°47' W 080°11'0 0.0
2018-Feb-12 06:00N 25°47' W 080°11'0 0.0
2018-Feb-12 05:30N 25°47' W 080°11'0 0.0
2018-Feb-12 05:00N 25°47' W 080°11'0 0.0
2018-Feb-12 04:30N 25°47' W 080°11'0 0.0
2018-Feb-12 04:00N 25°47' W 080°11'0 0.0
2018-Feb-12 03:30N 25°47' W 080°11'0 0.0
2018-Feb-12 03:00N 25°47' W 080°11'0 0.0
2018-Feb-12 02:30N 25°47' W 080°11'0 0.0
2018-Feb-12 02:00N 25°47' W 080°11'0 0.0
2018-Feb-12 01:30N 25°47' W 080°11'0 0.0
2018-Feb-12 01:00N 25°47' W 080°11'0 0.0
2018-Feb-12 00:30N 25°47' W 080°11'0 0.0
2018-Feb-12 00:00N 25°47' W 080°11'0 0.0
2018-Feb-11 23:30N 25°47' W 080°11'0 0.4
2018-Feb-11 22:58N 25°47' W 080°11'0 0.0
2018-Feb-11 22:25N 25°47' W 080°11'0 0.0
2018-Feb-11 21:58N 25°47' W 080°11'0 0.0
2018-Feb-11 21:28N 25°47' W 080°11'0 0.0
2018-Feb-11 20:55N 25°47' W 080°11'0 0.0
2018-Feb-11 20:28N 25°47' W 080°11'0 0.0
2018-Feb-11 19:58N 25°47' W 080°11'0 0.0
2018-Feb-11 19:25N 25°47' W 080°11'0 0.0
2018-Feb-11 18:58N 25°47' W 080°11'0 0.0
2018-Feb-11 18:25N 25°47' W 080°11'0 0.0
2018-Feb-11 17:58N 25°47' W 080°11'0 0.0
2018-Feb-11 17:28N 25°47' W 080°11'0 0.0
2018-Feb-11 16:55N 25°47' W 080°11'0 0.0
2018-Feb-11 16:25N 25°47' W 080°11'0 0.0
2018-Feb-11 15:58N 25°47' W 080°11'0 0.0
2018-Feb-11 15:28N 25°47' W 080°11'0 0.0
2018-Feb-11 14:55N 25°47' W 080°11'0 0.0
2018-Feb-11 14:28N 25°47' W 080°11'0 0.0
2018-Feb-11 13:58N 25°47' W 080°11'0 0.0
2018-Feb-11 13:31N 25°47' W 080°11'0 0.0
2018-Feb-11 13:00N 25°47' W 080°11'2 3.4
2018-Feb-11 12:30N 25°46' W 080°09'510.1
2018-Feb-11 12:00N 25°46' W 080°03'510.4
2018-Feb-11 11:30N 25°48' W 079°58'611.3
2018-Feb-11 11:00N 25°51' W 079°52'611.9
2018-Feb-11 10:30N 25°54' W 079°47'611.1
2018-Feb-11 10:00N 25°56' W 079°41'5 9.7
2018-Feb-11 09:29N 25°59' W 079°37'3 6.6
2018-Feb-11 09:00N 26°02' W 079°35'4 8.6
2018-Feb-11 08:31N 26°03' W 079°31'4 8.0
2018-Feb-11 08:00N 26°06' W 079°27'4 8.0
2018-Feb-11 07:31N 26°09' W 079°24'4 6.7
2018-Feb-11 06:59N 26°12' W 079°24'4 6.6
2018-Feb-11 06:25N 26°16' W 079°25'  

Dump ship's entire track history